Terminal Aerodrome Forecast
Issued by NWS Atlanta, GA

Home | Current Version | Previous Version | Text Only | Print | Product List | Glossary On
Versions: 1 2 3 4 5 6 7 8 9 10 11 12 13 14 15 16 17 18 19 20 21
000
FTUS42 KFFC 022335
TAFMCN
TAF
KMCN 022335Z 0300/0324 11007KT P6SM FEW070
     FM030200 02004KT P6SM FEW250
     FM031400 34004KT P6SM SKC
     FM031700 32007KT P6SM FEW040
     FM032300 33005KT P6SM SCT250=

USA.gov is the U.S. government's official web portal to all federal, state and local government web resources and services.